createdAt,value
2022-08-12T00:01:11.620Z,2.00
2022-08-12T00:03:56.757Z,2.30
2022-08-12T00:06:43.026Z,2.40
2022-08-12T00:09:28.356Z,2.10
2022-08-12T00:12:14.013Z,2.50
2022-08-12T00:15:02.438Z,2.30
2022-08-12T00:17:49.153Z,2.30
2022-08-12T00:20:34.718Z,2.37
2022-08-12T00:23:20.483Z,2.40
2022-08-12T00:26:23.294Z,2.60
2022-08-12T00:29:12.586Z,2.17
2022-08-12T00:32:00.491Z,2.30
2022-08-12T00:34:49.084Z,2.47
2022-08-12T00:37:39.464Z,2.40
2022-08-12T00:40:28.911Z,2.37
2022-08-12T00:42:57.498Z,2.53
2022-08-12T00:45:24.842Z,2.30
2022-08-12T00:47:53.665Z,2.60
2022-08-12T00:50:23.374Z,2.50
2022-08-12T00:52:52.803Z,2.33
2022-08-12T00:55:21.340Z,2.10
2022-08-12T00:57:50.819Z,2.37
2022-08-12T01:00:24.880Z,2.67
2022-08-12T01:02:58.604Z,2.37
2022-08-12T01:05:45.093Z,2.40
2022-08-12T01:08:31.305Z,2.40
2022-08-12T01:11:17.169Z,2.90
2022-08-12T01:13:48.850Z,2.60
2022-08-12T01:16:22.437Z,2.70
2022-08-12T01:18:51.948Z,2.47
2022-08-12T01:21:27.712Z,2.53
2022-08-12T01:24:31.180Z,2.33
2022-08-12T01:27:00.246Z,2.40
2022-08-12T01:29:33.020Z,2.23
2022-08-12T01:32:08.012Z,2.10
2022-08-12T01:34:38.675Z,2.70
2022-08-12T01:37:09.256Z,2.20
2022-08-12T01:40:32.029Z,2.40
2022-08-12T01:42:55.518Z,2.50
2022-08-12T01:45:24.579Z,2.10
2022-08-12T01:48:12.908Z,2.40
2022-08-12T01:51:13.384Z,2.40
2022-08-12T01:54:14.041Z,2.10
2022-08-12T01:56:59.641Z,2.50
2022-08-12T01:59:56.474Z,2.60
2022-08-12T02:02:37.161Z,2.70
2022-08-12T02:05:45.837Z,2.33
2022-08-12T02:09:10.734Z,3.03
2022-08-12T02:12:09.454Z,2.23
2022-08-12T02:14:46.249Z,2.67
2022-08-12T02:17:54.645Z,2.53
2022-08-12T02:20:52.005Z,2.70
2022-08-12T02:23:26.543Z,2.33
2022-08-12T02:25:59.584Z,2.80
2022-08-12T02:28:27.164Z,2.60
2022-08-12T02:30:55.623Z,2.40
2022-08-12T02:33:23.262Z,3.50
2022-08-12T02:35:51.536Z,3.07
2022-08-12T02:38:21.660Z,2.67
2022-08-12T02:40:54.875Z,2.80
2022-08-12T02:43:50.806Z,2.53
2022-08-12T02:46:29.143Z,2.40
2022-08-12T02:49:04.008Z,2.60
2022-08-12T02:51:34.868Z,2.60
2022-08-12T02:54:06.177Z,2.67
2022-08-12T02:56:50.286Z,2.50
2022-08-12T02:59:22.647Z,3.37
2022-08-12T03:01:56.581Z,2.90
2022-08-12T03:04:30.675Z,2.37
2022-08-12T03:07:14.411Z,2.73
2022-08-12T03:10:16.093Z,2.53
2022-08-12T03:12:49.050Z,2.60
2022-08-12T03:15:22.804Z,2.70
2022-08-12T03:18:29.277Z,2.30
2022-08-12T03:20:59.326Z,2.50
2022-08-12T03:23:30.830Z,2.60
2022-08-12T03:26:03.151Z,2.90
2022-08-12T03:28:54.236Z,2.57
2022-08-12T03:31:30.794Z,3.10
2022-08-12T03:34:07.046Z,2.60
2022-08-12T03:36:37.206Z,2.93
2022-08-12T03:39:16.701Z,2.50
2022-08-12T03:41:58.443Z,2.23
2022-08-12T03:45:51.614Z,2.50
2022-08-12T03:48:39.285Z,2.53
2022-08-12T03:51:24.855Z,2.90
2022-08-12T03:54:11.707Z,2.63
2022-08-12T03:56:58.125Z,2.70
2022-08-12T03:59:43.954Z,2.57
2022-08-12T04:02:17.750Z,2.87
2022-08-12T04:04:46.377Z,2.60
2022-08-12T04:07:16.142Z,2.60
2022-08-12T04:09:46.006Z,3.00
2022-08-12T04:12:32.635Z,2.50
2022-08-12T04:15:01.210Z,2.80
2022-08-12T04:17:28.591Z,3.00
2022-08-12T04:19:58.026Z,2.57
2022-08-12T04:22:30.269Z,2.63
2022-08-12T04:25:02.759Z,2.50
2022-08-12T04:27:31.914Z,2.40
2022-08-12T04:30:30.843Z,2.80
2022-08-12T04:32:49.953Z,2.37
2022-08-12T04:35:17.875Z,2.80
2022-08-12T04:37:58.983Z,2.80
2022-08-12T04:40:31.135Z,2.70
2022-08-12T04:43:01.113Z,2.97
2022-08-12T04:45:29.379Z,2.70
2022-08-12T04:47:56.877Z,3.37
2022-08-12T04:50:33.766Z,2.67
2022-08-12T04:53:08.936Z,2.60
2022-08-12T04:55:38.597Z,2.57
2022-08-12T04:58:07.257Z,2.43
2022-08-12T05:00:35.181Z,2.63
2022-08-12T05:03:02.174Z,2.27
2022-08-12T05:05:35.231Z,2.60
2022-08-12T05:08:03.993Z,2.57
2022-08-12T05:10:33.370Z,2.50
2022-08-12T05:13:09.403Z,2.13
2022-08-12T05:16:03.971Z,2.17
2022-08-12T05:18:29.228Z,2.23
2022-08-12T05:20:58.763Z,2.40
2022-08-12T05:23:26.076Z,2.50
2022-08-12T05:25:57.052Z,2.10
2022-08-12T05:28:27.014Z,2.20
2022-08-12T05:30:55.024Z,2.63
2022-08-12T05:33:26.505Z,2.60
2022-08-12T05:35:53.525Z,2.33
2022-08-12T05:38:39.334Z,2.27
2022-08-12T05:41:18.911Z,2.07
2022-08-12T05:44:08.045Z,2.60
2022-08-12T05:46:36.994Z,2.30
2022-08-12T05:49:05.551Z,2.13
2022-08-12T05:51:40.544Z,2.60
2022-08-12T05:54:09.146Z,2.00
2022-08-12T05:56:36.920Z,2.23
2022-08-12T05:59:09.318Z,2.40
2022-08-12T06:02:11.956Z,2.40
2022-08-12T06:04:24.018Z,1.90
2022-08-12T06:06:53.247Z,2.20
2022-08-12T06:09:22.341Z,1.90
2022-08-12T06:12:05.434Z,2.17
2022-08-12T06:14:38.814Z,2.00
2022-08-12T06:17:08.709Z,2.20
2022-08-12T06:20:22.810Z,2.10
2022-08-12T06:22:25.926Z,2.13
2022-08-12T06:24:53.469Z,2.07
2022-08-12T06:27:21.480Z,2.17
2022-08-12T06:30:09.343Z,2.20
2022-08-12T06:32:35.450Z,2.33
2022-08-12T06:35:24.167Z,2.20
2022-08-12T06:37:57.042Z,2.40
2022-08-12T06:40:44.176Z,2.23
2022-08-12T06:43:11.026Z,1.77
2022-08-12T06:45:47.201Z,2.30
2022-08-12T06:48:14.930Z,2.50
2022-08-12T06:50:42.551Z,2.20
2022-08-12T06:53:11.263Z,2.20
2022-08-12T06:55:39.396Z,2.07
2022-08-12T06:58:25.077Z,2.30
2022-08-12T07:00:52.132Z,2.43
2022-08-12T07:03:25.664Z,2.33
2022-08-12T07:05:52.562Z,2.03
2022-08-12T07:08:19.468Z,2.73
2022-08-12T07:10:57.314Z,2.00
2022-08-12T07:13:25.077Z,2.40
2022-08-12T07:15:56.526Z,2.40
2022-08-12T07:18:30.054Z,2.40
2022-08-12T07:20:58.213Z,2.27
2022-08-12T07:23:25.035Z,2.23
2022-08-12T07:25:56.445Z,2.10
2022-08-12T07:28:28.040Z,2.20
2022-08-12T07:30:57.188Z,2.30
2022-08-12T07:33:28.677Z,2.20
2022-08-12T07:35:58.306Z,2.00
2022-08-12T07:38:33.338Z,2.37
2022-08-12T07:41:15.743Z,2.60
2022-08-12T07:43:49.555Z,2.20
2022-08-12T07:46:39.099Z,2.00
2022-08-12T07:49:16.083Z,2.33
2022-08-12T07:51:44.741Z,2.40
2022-08-12T07:54:13.675Z,2.70
2022-08-12T07:56:43.251Z,2.10
2022-08-12T07:59:10.356Z,2.30
2022-08-12T08:01:38.345Z,2.30
2022-08-12T08:04:25.269Z,2.23
2022-08-12T08:06:52.423Z,2.07
2022-08-12T08:09:22.365Z,2.10
2022-08-12T08:12:08.192Z,2.20
2022-08-12T08:14:35.202Z,2.20
2022-08-12T08:17:03.681Z,2.47
2022-08-12T08:19:33.513Z,2.00
2022-08-12T08:22:32.032Z,2.00
2022-08-12T08:25:20.190Z,2.57
2022-08-12T08:27:54.840Z,2.23
2022-08-12T08:30:21.758Z,2.10
2022-08-12T08:32:48.716Z,2.33
2022-08-12T08:35:15.878Z,2.50
2022-08-12T08:37:46.958Z,2.67
2022-08-12T08:40:34.087Z,2.30
2022-08-12T08:43:01.195Z,2.30
2022-08-12T08:45:28.737Z,2.43
2022-08-12T08:48:00.091Z,2.30
2022-08-12T08:50:27.503Z,2.43
2022-08-12T08:52:54.351Z,2.50
2022-08-12T08:55:30.028Z,2.27
2022-08-12T08:58:00.354Z,1.93
2022-08-12T09:00:27.552Z,1.80
2022-08-12T09:02:58.673Z,1.97
2022-08-12T09:05:27.919Z,2.10
2022-08-12T09:08:09.101Z,2.00
2022-08-12T09:10:45.346Z,2.00
2022-08-12T09:13:29.377Z,2.07
2022-08-12T09:16:16.309Z,1.97
2022-08-12T09:18:52.147Z,1.90
2022-08-12T09:21:54.095Z,1.90
2022-08-12T09:24:22.224Z,2.17
2022-08-12T09:26:49.687Z,2.03
2022-08-12T09:30:10.787Z,2.20
2022-08-12T09:32:11.580Z,2.00
2022-08-12T09:34:56.817Z,1.90
2022-08-12T09:37:26.483Z,1.67
2022-08-12T09:40:05.288Z,1.77
2022-08-12T09:43:16.798Z,2.13
2022-08-12T09:46:12.070Z,2.17
2022-08-12T09:48:36.589Z,1.93
2022-08-12T09:51:17.086Z,2.13
2022-08-12T09:54:05.494Z,1.93
2022-08-12T09:56:58.401Z,1.80
2022-08-12T10:00:17.330Z,2.10
2022-08-12T10:02:45.959Z,1.93
2022-08-12T10:04:59.483Z,2.00
2022-08-12T10:07:28.676Z,1.90
2022-08-12T10:10:23.056Z,1.87
2022-08-12T10:13:40.050Z,1.93
2022-08-12T10:16:06.352Z,1.90
2022-08-12T10:18:37.265Z,1.60
2022-08-12T10:21:37.533Z,1.70
2022-08-12T10:24:08.285Z,1.50
2022-08-12T10:26:56.621Z,1.47
2022-08-12T10:30:03.670Z,1.30
2022-08-12T10:32:44.341Z,1.53
2022-08-12T10:35:15.344Z,1.83
2022-08-12T10:38:33.380Z,1.63
2022-08-12T10:40:33.420Z,1.40
2022-08-12T10:43:20.097Z,1.27
2022-08-12T10:45:51.731Z,1.27
2022-08-12T10:48:27.110Z,1.53
2022-08-12T10:51:51.830Z,1.37
2022-08-12T10:54:00.972Z,1.50
2022-08-12T10:56:34.836Z,1.30
2022-08-12T10:59:05.105Z,1.40
2022-08-12T11:04:18.410Z,1.20
2022-08-12T11:04:34.192Z,1.30
2022-08-12T11:08:35.126Z,1.50
2022-08-12T11:10:00.787Z,1.45
2022-08-12T11:12:56.674Z,1.40
2022-08-12T11:15:32.938Z,1.27
2022-08-12T11:18:07.652Z,1.20
2022-08-12T11:20:39.585Z,1.57
2022-08-12T11:23:25.206Z,1.40
2022-08-12T11:25:57.517Z,1.20
2022-08-12T11:28:34.152Z,1.40
2022-08-12T11:31:04.078Z,1.30
2022-08-12T11:34:04.362Z,1.40
2022-08-12T11:36:18.282Z,0.90
2022-08-12T11:38:50.792Z,1.13
2022-08-12T11:41:31.721Z,1.10
2022-08-12T11:44:35.278Z,1.10
2022-08-12T11:46:53.231Z,0.82
2022-08-12T11:49:30.826Z,0.90
2022-08-12T11:52:02.006Z,1.05
2022-08-12T11:54:30.175Z,0.90
2022-08-12T11:57:02.521Z,0.90
2022-08-12T12:02:21.312Z,0.80
2022-08-12T12:04:52.571Z,0.93
2022-08-12T12:07:22.568Z,1.00
2022-08-12T12:09:52.899Z,1.05
2022-08-12T12:12:22.898Z,0.80
2022-08-12T12:14:54.673Z,0.98
2022-08-12T12:17:38.003Z,0.90
2022-08-12T12:20:09.358Z,1.05
2022-08-12T12:22:41.773Z,1.30
2022-08-12T12:25:12.864Z,1.10
2022-08-12T12:28:04.018Z,1.00
2022-08-12T12:30:37.238Z,1.10
2022-08-12T12:33:06.196Z,0.90
2022-08-12T12:36:17.148Z,0.97
2022-08-12T12:38:21.057Z,0.77
2022-08-12T12:40:52.963Z,0.73
2022-08-12T12:43:28.687Z,0.80
2022-08-12T12:46:08.773Z,0.50
2022-08-12T12:48:35.747Z,0.70
2022-08-12T12:51:48.465Z,0.70
2022-08-12T12:54:07.523Z,0.70
2022-08-12T12:56:40.364Z,0.60
2022-08-12T12:59:07.476Z,1.55
2022-08-12T13:01:55.093Z,0.80
2022-08-12T13:04:22.531Z,0.75
2022-08-12T13:06:52.068Z,0.68
2022-08-12T13:09:22.801Z,0.80
2022-08-12T13:11:53.478Z,0.63
2022-08-12T13:14:28.275Z,0.80
2022-08-12T13:16:57.462Z,0.80
2022-08-12T13:19:37.478Z,0.70
2022-08-12T13:22:18.456Z,0.80
2022-08-12T13:24:54.507Z,0.70
2022-08-12T13:27:36.415Z,0.70
2022-08-12T13:30:11.282Z,0.95
2022-08-12T13:32:40.577Z,0.70
2022-08-12T13:35:20.284Z,0.77
2022-08-12T13:37:57.257Z,0.60
2022-08-12T13:40:28.395Z,0.60
2022-08-12T13:43:01.702Z,0.50
2022-08-12T13:45:31.106Z,0.70
2022-08-12T13:48:03.777Z,0.80
2022-08-12T13:50:36.240Z,0.70
2022-08-12T13:53:24.061Z,0.80
2022-08-12T13:55:59.446Z,0.63
2022-08-12T13:58:30.199Z,0.80
2022-08-12T14:00:58.549Z,0.65
2022-08-12T14:03:28.636Z,0.70
2022-08-12T14:06:15.387Z,0.70
2022-08-12T14:08:43.268Z,0.98
2022-08-12T14:11:12.617Z,0.75
2022-08-12T14:14:03.754Z,0.90
2022-08-12T14:16:37.384Z,1.00
2022-08-12T14:19:22.577Z,0.77
2022-08-12T14:22:00.815Z,0.60
2022-08-12T14:24:36.951Z,0.80
2022-08-12T14:27:10.420Z,0.60
2022-08-12T14:30:04.483Z,0.70
2022-08-12T14:32:34.639Z,0.80
2022-08-12T14:35:05.106Z,0.70
2022-08-12T14:37:55.574Z,0.75
2022-08-12T14:40:27.763Z,0.50
2022-08-12T14:42:57.100Z,0.70
2022-08-12T14:45:37.191Z,0.68
2022-08-12T14:48:13.388Z,0.63
2022-08-12T14:51:09.568Z,0.60
2022-08-12T14:59:57.380Z,0.70
2022-08-12T15:02:26.445Z,0.90
2022-08-12T15:04:58.989Z,0.80
2022-08-12T15:07:33.786Z,0.68
2022-08-12T15:10:31.237Z,0.90
2022-08-12T15:12:59.065Z,0.88
2022-08-12T15:15:25.892Z,0.80
2022-08-12T15:18:02.464Z,0.90
2022-08-12T15:20:37.593Z,0.82
2022-08-12T15:23:17.524Z,0.90
2022-08-12T15:26:02.911Z,1.00
2022-08-12T15:28:34.121Z,0.90
2022-08-12T15:31:02.681Z,0.70
2022-08-12T15:33:46.016Z,0.80
2022-08-12T15:36:14.614Z,1.00
2022-08-12T15:38:46.434Z,0.87
2022-08-12T15:41:15.330Z,0.90
2022-08-12T15:44:17.128Z,0.90
2022-08-12T15:46:32.532Z,1.00
2022-08-12T15:48:59.529Z,1.00
2022-08-12T15:51:59.921Z,0.90
2022-08-12T15:54:33.781Z,0.90
2022-08-12T15:57:07.556Z,1.00
2022-08-12T15:59:51.986Z,1.10
2022-08-12T16:02:29.796Z,0.80
2022-08-12T16:04:57.601Z,0.87
2022-08-12T16:07:26.000Z,0.80
2022-08-12T16:10:05.367Z,0.90
2022-08-12T16:12:55.009Z,1.10
2022-08-12T16:15:26.351Z,1.00
2022-08-12T16:18:20.030Z,0.90
2022-08-12T16:20:42.548Z,1.03
2022-08-12T16:23:26.703Z,1.00
2022-08-12T16:26:14.904Z,1.00
2022-08-12T16:28:44.342Z,0.90
2022-08-12T16:31:22.605Z,0.90
2022-08-12T16:33:59.849Z,1.00
2022-08-12T16:36:29.440Z,1.00
2022-08-12T16:38:56.917Z,0.90
2022-08-12T16:41:23.880Z,0.80
2022-08-12T16:43:53.293Z,1.13
2022-08-12T16:46:31.787Z,1.00
2022-08-12T16:49:08.658Z,0.97
2022-08-12T16:51:41.792Z,0.90
2022-08-12T16:54:16.115Z,0.90
2022-08-12T16:56:55.337Z,0.93
2022-08-12T16:59:52.728Z,1.13
2022-08-12T17:02:30.081Z,1.17
2022-08-12T17:05:04.626Z,1.17
2022-08-12T17:07:38.138Z,1.00
2022-08-12T17:10:13.838Z,0.90
2022-08-12T17:12:45.419Z,1.07
2022-08-12T17:15:50.904Z,0.97
2022-08-12T17:18:39.333Z,1.20
2022-08-12T17:20:49.559Z,1.10
2022-08-12T17:23:19.261Z,1.33
2022-08-12T17:25:52.910Z,1.00
2022-08-12T17:28:21.403Z,1.20
2022-08-12T17:30:57.312Z,1.10
2022-08-12T17:33:27.776Z,1.30
2022-08-12T17:36:02.845Z,1.10
2022-08-12T17:38:29.694Z,1.10
2022-08-12T17:40:57.653Z,1.20
2022-08-12T17:43:57.797Z,1.40
2022-08-12T17:46:23.633Z,1.13
2022-08-12T17:48:54.902Z,1.40
2022-08-12T17:51:24.283Z,1.20
2022-08-12T17:54:11.256Z,1.30
2022-08-12T17:56:41.147Z,1.10
2022-08-12T17:59:12.475Z,1.30
2022-08-12T18:01:44.453Z,1.30
2022-08-12T18:04:23.166Z,1.40
2022-08-12T18:07:02.259Z,1.10
2022-08-12T18:09:32.066Z,1.00
2022-08-12T18:12:24.494Z,1.10
2022-08-12T18:15:01.887Z,1.43
2022-08-12T18:17:31.306Z,1.37
2022-08-12T18:20:05.480Z,1.23
2022-08-12T18:22:36.276Z,1.40
2022-08-12T18:26:12.730Z,1.20
2022-08-12T18:28:15.404Z,1.20
2022-08-12T18:30:52.206Z,1.20
2022-08-12T18:33:24.599Z,1.30
2022-08-12T18:35:55.706Z,1.10
2022-08-12T18:38:25.829Z,1.20
2022-08-12T18:41:21.590Z,1.40
2022-08-12T18:44:01.253Z,1.30
2022-08-12T18:46:55.338Z,1.30
2022-08-12T18:49:34.894Z,1.07
2022-08-12T18:52:07.762Z,1.23
2022-08-12T18:54:53.313Z,1.30
2022-08-12T18:58:06.222Z,1.00
2022-08-12T19:00:21.181Z,1.20
2022-08-12T19:02:51.072Z,1.00
2022-08-12T19:05:17.930Z,1.20
2022-08-12T19:08:00.148Z,1.00
2022-08-12T19:10:30.230Z,1.47
2022-08-12T19:13:23.530Z,1.43
2022-08-12T19:15:54.538Z,1.30
2022-08-12T19:18:25.760Z,1.13
2022-08-12T19:20:56.714Z,1.20
2022-08-12T19:23:25.421Z,1.50
2022-08-12T19:26:05.069Z,1.20
2022-08-12T19:28:34.437Z,1.10
2022-08-12T19:31:44.586Z,1.40
2022-08-12T19:36:14.470Z,1.40
2022-08-12T19:38:03.546Z,2.07
2022-08-12T19:40:32.951Z,1.10
2022-08-12T19:43:20.214Z,1.10
2022-08-12T19:45:56.783Z,1.43
2022-08-12T19:48:30.412Z,1.23
2022-08-12T19:50:58.086Z,1.43
2022-08-12T19:53:27.454Z,1.07
2022-08-12T19:55:57.312Z,1.10
2022-08-12T19:58:24.949Z,1.20
2022-08-12T20:00:53.762Z,1.50
2022-08-12T20:03:40.435Z,1.27
2022-08-12T20:06:16.020Z,1.33
2022-08-12T20:08:56.503Z,1.50
2022-08-12T20:12:12.720Z,1.23
2022-08-12T20:14:19.843Z,1.50
2022-08-12T20:16:57.828Z,1.53
2022-08-12T20:20:01.620Z,1.40
2022-08-12T20:22:23.979Z,1.23
2022-08-12T20:24:55.219Z,1.43
2022-08-12T20:27:29.691Z,1.30
2022-08-12T20:30:13.551Z,1.37
2022-08-12T20:32:55.469Z,1.60
2022-08-12T20:35:25.139Z,1.37
2022-08-12T20:38:26.556Z,1.30
2022-08-12T20:40:55.838Z,1.20
2022-08-12T20:43:28.444Z,1.43
2022-08-12T20:45:59.200Z,1.30
2022-08-12T20:48:29.379Z,1.47
2022-08-12T20:51:04.214Z,1.50
2022-08-12T20:53:54.291Z,1.63
2022-08-12T20:56:36.686Z,1.43
2022-08-12T20:59:10.431Z,1.03
2022-08-12T21:01:47.784Z,1.60
2022-08-12T21:04:36.598Z,1.30
2022-08-12T21:07:09.457Z,1.43
2022-08-12T21:09:44.136Z,1.60
2022-08-12T21:12:27.614Z,1.40
2022-08-12T21:15:16.596Z,1.40
2022-08-12T21:18:08.885Z,1.50
2022-08-12T21:20:35.514Z,1.43
2022-08-12T21:23:05.735Z,1.40
2022-08-12T21:25:44.481Z,1.40
2022-08-12T21:28:14.036Z,1.90
2022-08-12T21:31:11.222Z,1.43
2022-08-12T21:33:32.134Z,1.60
2022-08-12T21:36:22.662Z,1.47
2022-08-12T21:39:35.817Z,1.70
2022-08-12T21:42:06.942Z,1.50
2022-08-12T21:45:46.608Z,1.20
2022-08-12T21:47:24.244Z,1.27
2022-08-12T21:50:06.626Z,1.40
2022-08-12T21:52:41.013Z,1.40
2022-08-12T21:55:18.784Z,1.50
2022-08-12T21:57:54.933Z,1.30
2022-08-12T22:00:34.281Z,1.50
2022-08-12T22:04:03.694Z,1.43
2022-08-12T22:06:31.236Z,1.60
2022-08-12T22:09:17.237Z,1.40
2022-08-12T22:11:58.650Z,1.43
2022-08-12T22:14:28.761Z,1.63
2022-08-12T22:16:57.958Z,1.50
2022-08-12T22:19:26.769Z,1.33
2022-08-12T22:21:55.879Z,1.70
2022-08-12T22:24:26.419Z,1.60
2022-08-12T22:26:55.491Z,1.60
2022-08-12T22:29:40.799Z,1.70
2022-08-12T22:32:11.515Z,1.50
2022-08-12T22:34:39.478Z,1.57
2022-08-12T22:37:19.858Z,1.80
2022-08-12T22:39:49.183Z,1.43
2022-08-12T22:42:41.023Z,1.63
2022-08-12T22:45:27.555Z,1.60
2022-08-12T22:47:56.036Z,1.60
2022-08-12T22:50:28.531Z,1.60
2022-08-12T22:53:15.160Z,1.70
2022-08-12T22:56:00.501Z,1.80
2022-08-12T22:58:33.537Z,2.47
2022-08-12T23:01:01.898Z,1.80
2022-08-12T23:03:48.281Z,1.93
2022-08-12T23:06:23.674Z,2.13
2022-08-12T23:08:52.352Z,2.00
2022-08-12T23:11:23.508Z,1.70
2022-08-12T23:13:54.947Z,1.80
2022-08-12T23:16:31.616Z,1.70
2022-08-12T23:19:23.221Z,1.70
2022-08-12T23:22:06.761Z,2.00
2022-08-12T23:24:55.541Z,1.60
2022-08-12T23:27:52.051Z,1.70
2022-08-12T23:30:32.307Z,1.90
2022-08-12T23:33:13.121Z,1.87
2022-08-12T23:35:54.062Z,1.60
2022-08-12T23:38:32.236Z,1.57
2022-08-12T23:41:02.266Z,1.60
2022-08-12T23:43:39.897Z,1.50
2022-08-12T23:46:19.208Z,1.70
2022-08-12T23:48:48.084Z,1.70
2022-08-12T23:51:22.353Z,1.87
2022-08-12T23:54:00.136Z,1.80
2022-08-12T23:56:32.846Z,1.50
2022-08-12T23:59:07.688Z,2.00
